Time;durP1;ratioP1;P1;durP2;ratioP2;P2;SDS_P1;SDS_P2;PMS_P1;PMS_P2;Temp;Humidity;BMP_temperature;BMP_pressure;BME280_temperature;BME280_humidity;BME280_pressure;Samples;Min_cycle;Max_cycle;Signal;HPM_P1;HPM_P2
2021/10/14 00:01:39;;;;;;;;;66.00;51.25;;;;;12.11;64.89;102580.31;4941858;28;45380;-50
2021/10/14 00:04:04;;;;;;;;;67.25;52.00;;;;;12.08;65.27;102572.47;4941862;28;45288;-50
2021/10/14 00:06:30;;;;;;;;;75.67;58.00;;;;;12.05;65.42;102580.53;4951700;28;45160;-50
2021/10/14 00:08:55;;;;;;;;;73.67;56.33;;;;;12.03;65.39;102587.66;4941683;28;45721;-48
2021/10/14 00:11:21;;;;;;;;;81.67;60.67;;;;;11.99;65.74;102578.97;4942035;28;45302;-48
2021/10/14 00:13:47;;;;;;;;;77.00;59.00;;;;;11.99;65.46;102584.25;4943109;28;45363;-50
2021/10/14 00:16:13;;;;;;;;;76.33;58.33;;;;;11.98;65.85;102579.03;4945560;28;45250;-50
2021/10/14 00:18:38;;;;;;;;;74.67;60.00;;;;;11.98;66.12;102579.03;4950054;28;45477;-50
2021/10/14 00:21:04;;;;;;;;;81.67;60.33;;;;;11.96;65.76;102584.38;4964654;28;45362;-50
2021/10/14 00:23:29;;;;;;;;;81.33;63.33;;;;;11.96;66.08;102578.22;4964356;28;45457;-51
2021/10/14 00:25:55;;;;;;;;;79.00;61.00;;;;;11.94;65.85;102583.56;4964626;28;45392;-49
2021/10/14 00:28:21;;;;;;;;;77.33;57.67;;;;;11.91;66.06;102575.72;4964259;28;46132;-53
2021/10/14 00:30:46;;;;;;;;;85.33;67.33;;;;;11.90;65.94;102575.78;4964461;28;45261;-51
2021/10/14 00:33:12;;;;;;;;;86.00;64.67;;;;;11.90;66.31;102579.28;4959400;28;45435;-48
2021/10/14 00:35:37;;;;;;;;;84.00;71.00;;;;;11.90;66.11;102583.72;4944683;28;45259;-51
2021/10/14 00:38:03;;;;;;;;;83.33;67.67;;;;;11.88;66.26;102583.78;4944363;28;46226;-51
2021/10/14 00:40:29;;;;;;;;;75.00;58.00;;;;;11.88;66.17;102583.78;4959752;28;45339;-48
2021/10/14 00:42:55;;;;;;;;;88.00;74.67;;;;;11.83;66.17;102577.78;4959252;28;45224;-48
2021/10/14 00:45:20;;;;;;;;;88.33;71.33;;;;;11.84;66.14;102587.41;4953129;28;45324;-50
2021/10/14 00:47:46;;;;;;;;;84.00;64.33;;;;;11.85;66.21;102575.06;4944669;28;45247;-51
2021/10/14 00:50:11;;;;;;;;;91.67;68.00;;;;;11.86;66.36;102579.47;4944561;28;45427;-49
2021/10/14 00:52:41;;;;;;;;;89.67;70.67;;;;;11.86;66.11;102582.97;4944429;28;45398;-51
2021/10/14 00:55:07;;;;;;;;;88.33;69.33;;;;;11.85;66.31;102583.91;4944680;28;45243;-50
2021/10/14 00:57:33;;;;;;;;;83.00;60.33;;;;;11.80;66.17;102582.28;4944352;28;45271;-51
2021/10/14 00:59:59;;;;;;;;;86.00;66.00;;;;;11.78;66.21;102579.72;4944462;28;45320;-53
2021/10/14 01:02:25;;;;;;;;;78.00;61.00;;;;;11.77;66.33;102571.81;4944496;28;45317;-51
2021/10/14 01:04:54;;;;;;;;;80.33;61.33;;;;;11.75;66.25;102569.22;4949102;28;45234;-51
2021/10/14 01:07:19;;;;;;;;;80.00;63.00;;;;;11.70;66.44;102566.78;4944981;28;46250;-53
2021/10/14 01:09:45;;;;;;;;;79.00;59.67;;;;;11.65;66.41;102568.69;4944360;28;45449;-51
2021/10/14 01:12:13;;;;;;;;;77.33;59.00;;;;;11.63;66.42;102567.03;4944518;28;45369;-52
2021/10/14 01:14:38;;;;;;;;;85.00;61.67;;;;;11.60;66.56;102569.75;4944626;28;45164;-52
2021/10/14 01:17:04;;;;;;;;;76.67;58.67;;;;;11.56;66.47;102562.88;4944295;28;45319;-50
2021/10/14 01:19:29;;;;;;;;;78.33;60.67;;;;;11.54;66.40;102557.66;4956174;28;45326;-50
2021/10/14 01:21:55;;;;;;;;;75.00;58.33;;;;;11.52;66.56;102556.81;4963460;28;45409;-51
2021/10/14 01:24:20;;;;;;;;;76.00;58.00;;;;;11.50;66.57;102555.16;4963803;28;45233;-50
2021/10/14 01:26:46;;;;;;;;;74.33;56.00;;;;;11.46;66.46;102557.06;4963409;28;45607;-51
2021/10/14 01:29:12;;;;;;;;;75.33;54.33;;;;;11.43;66.64;102554.50;4963532;28;45433;-52
2021/10/14 01:31:38;;;;;;;;;68.33;51.33;;;;;11.40;66.62;102552.84;4978318;28;45261;-54
2021/10/14 01:34:04;;;;;;;;;66.50;51.75;;;;;11.39;66.53;102559.03;4951655;28;45322;-50
2021/10/14 01:36:30;;;;;;;;;66.75;51.50;;;;;11.38;66.82;102551.19;4943349;28;45362;-51
2021/10/14 01:38:55;;;;;;;;;72.25;54.00;;;;;11.39;66.64;102552.91;4943944;28;45247;-48
2021/10/14 01:41:21;;;;;;;;;69.75;52.50;;;;;11.39;66.69;102552.91;4945784;28;45263;-51
2021/10/14 01:43:47;;;;;;;;;68.25;51.25;;;;;11.37;66.48;102550.28;4963353;28;45473;-48
2021/10/14 01:46:13;;;;;;;;;64.00;47.25;;;;;11.36;66.60;102543.28;4944827;28;46036;-51
2021/10/14 01:48:39;;;;;;;;;70.50;50.75;;;;;11.36;66.38;102550.34;4943993;28;45368;-51
2021/10/14 01:51:05;;;;;;;;;61.50;49.00;;;;;11.34;66.54;102553.03;4943975;28;45323;-48
2021/10/14 01:53:30;;;;;;;;;55.25;43.75;;;;;11.35;66.69;102551.25;4943925;28;45227;-49
2021/10/14 01:55:56;;;;;;;;;62.50;48.50;;;;;11.35;66.88;102546.84;4943586;28;45348;-49
2021/10/14 01:58:22;;;;;;;;;62.25;48.00;;;;;11.37;66.47;102541.50;4943648;28;45446;-50
2021/10/14 02:00:50;;;;;;;;;63.00;47.00;;;;;11.35;66.67;102536.28;4943631;28;45501;-48
2021/10/14 02:03:16;;;;;;;;;63.00;48.50;;;;;11.35;66.34;102538.94;4943614;28;45484;-47
2021/10/14 02:05:42;;;;;;;;;60.25;48.25;;;;;11.34;66.33;102538.97;4950150;28;45490;-51
2021/10/14 02:08:07;;;;;;;;;59.50;47.00;;;;;11.30;66.57;102540.03;4943554;28;45224;-49
2021/10/14 02:10:33;;;;;;;;;61.50;47.50;;;;;11.26;66.36;102533.09;4943577;28;45414;-48
2021/10/14 02:12:58;;;;;;;;;59.00;48.00;;;;;11.24;66.41;102529.66;4943544;28;45500;-50
2021/10/14 02:15:24;;;;;;;;;61.75;44.50;;;;;11.24;66.40;102534.94;4943191;28;46163;-49
2021/10/14 02:17:50;;;;;;;;;55.75;44.00;;;;;11.22;66.01;102528.84;4943493;28;45323;-51
2021/10/14 02:20:15;;;;;;;;;54.25;42.00;;;;;11.22;66.35;102523.56;4961443;28;45307;-50
2021/10/14 02:22:41;;;;;;;;;48.00;39.25;;;;;11.21;66.12;102524.47;4962628;28;45326;-50
2021/10/14 02:25:08;;;;;;;;;42.00;35.25;;;;;11.20;66.02;102520.97;4962429;28;45439;-49
2021/10/14 02:27:34;;;;;;;;;48.00;40.75;;;;;11.21;66.07;102521.84;4962532;28;45310;-47
2021/10/14 02:30:01;;;;;;;;;41.50;35.75;;;;;11.18;65.97;102515.75;4962733;28;45364;-47
2021/10/14 02:32:28;;;;;;;;;51.50;39.00;;;;;11.17;66.19;102518.44;4962575;28;45312;-52
2021/10/14 02:34:55;;;;;;;;;53.00;40.75;;;;;11.14;66.29;102522.06;4943546;28;46161;-49
2021/10/14 02:37:20;;;;;;;;;59.00;40.00;;;;;11.13;66.16;102516.81;4942291;28;45397;-47
2021/10/14 02:39:46;;;;;;;;;56.25;40.75;;;;;11.11;66.27;102519.50;4943038;28;45232;-50
2021/10/14 02:42:11;;;;;;;;;49.25;37.75;;;;;11.10;66.04;102525.69;4951624;28;45649;-48
2021/10/14 02:44:37;;;;;;;;;45.50;39.00;;;;;11.08;66.58;102529.31;4956481;28;45535;-48
2021/10/14 02:47:03;;;;;;;;;52.75;41.75;;;;;11.07;66.32;102524.94;4942923;28;45376;-47
2021/10/14 02:49:29;;;;;;;;;34.25;27.75;;;;;11.05;66.46;102532.03;4942969;28;45323;-50
2021/10/14 02:51:54;;;;;;;;;46.00;39.00;;;;;11.06;66.61;102525.84;4942789;28;45537;-49
2021/10/14 02:54:20;;;;;;;;;47.25;35.00;;;;;11.07;66.34;102528.44;4942828;28;45788;-49
2021/10/14 02:56:45;;;;;;;;;38.50;35.75;;;;;11.09;66.82;102523.13;4942844;28;45300;-48
2021/10/14 02:59:11;;;;;;;;;46.25;36.25;;;;;11.10;66.80;102527.47;4942814;28;45365;-50
2021/10/14 03:01:37;;;;;;;;;42.00;37.00;;;;;11.11;66.76;102521.28;4942674;28;45163;-52
2021/10/14 03:04:03;;;;;;;;;42.00;36.75;;;;;11.07;66.56;102523.19;4942507;28;46173;-49
2021/10/14 03:06:28;;;;;;;;;46.50;33.50;;;;;11.03;66.40;102526.81;4948426;28;45178;-50
2021/10/14 03:08:54;;;;;;;;;48.75;33.00;;;;;11.00;66.56;102524.28;4942830;28;45294;-50
2021/10/14 03:11:20;;;;;;;;;40.25;33.75;;;;;10.98;66.74;102522.59;4942852;28;45692;-48
2021/10/14 03:13:46;;;;;;;;;35.00;31.25;;;;;10.98;66.40;102526.13;4942285;28;45329;-47
2021/10/14 03:16:12;;;;;;;;;30.75;28.00;;;;;10.97;66.50;102520.88;4942474;28;45379;-47
2021/10/14 03:18:37;;;;;;;;;33.75;27.75;;;;;11.00;66.43;102518.16;4947524;28;45430;-53
2021/10/14 03:21:03;;;;;;;;;29.25;27.50;;;;;10.98;66.30;102519.94;4961819;28;45326;-50
2021/10/14 03:23:28;;;;;;;;;32.75;26.00;;;;;10.98;66.20;102514.69;4961730;28;45453;-50
2021/10/14 03:25:54;;;;;;;;;28.25;21.50;;;;;10.98;66.00;102522.59;4961749;28;45397;-52
2021/10/14 03:28:19;;;;;;;;;28.25;26.00;;;;;10.99;66.03;102519.06;4961730;28;45315;-52
2021/10/14 03:30:44;;;;;;;;;29.00;24.50;;;;;10.98;66.33;102525.22;4961718;28;45370;-51
2021/10/14 03:33:10;;;;;;;;;26.25;22.75;;;;;10.97;66.09;102521.72;4956610;28;45292;-51
2021/10/14 03:35:35;;;;;;;;;27.50;22.50;;;;;10.96;66.30;102527.06;4942234;28;45427;-52
2021/10/14 03:38:01;;;;;;;;;32.00;26.75;;;;;10.94;66.69;102527.09;4942204;28;45380;-52
2021/10/14 03:40:28;;;;;;;;;27.50;23.75;;;;;10.88;66.13;102529.94;4942430;28;45288;-48
2021/10/14 03:42:54;;;;;;;;;33.00;29.00;;;;;10.86;66.15;102537.03;4956218;28;46248;-53
2021/10/14 03:45:20;;;;;;;;;32.50;25.75;;;;;10.84;66.67;102537.09;4950217;28;45250;-51
2021/10/14 03:47:45;;;;;;;;;27.00;22.25;;;;;10.86;66.34;102531.75;4942236;28;45415;-51
2021/10/14 03:50:11;;;;;;;;;27.00;26.00;;;;;10.89;66.34;102526.38;4945779;28;45381;-53
2021/10/14 03:52:38;;;;;;;;;31.00;23.25;;;;;10.86;66.96;102527.34;4945094;28;46139;-53
2021/10/14 03:55:04;;;;;;;;;28.25;24.50;;;;;10.82;66.88;102530.13;4945617;28;45392;-52
2021/10/14 03:57:30;;;;;;;;;28.25;25.25;;;;;10.77;66.63;102535.56;4945406;28;45491;-52
2021/10/14 03:59:55;;;;;;;;;25.75;23.00;;;;;10.78;67.12;102534.66;4945671;28;45434;-53
2021/10/14 04:02:21;;;;;;;;;32.50;26.25;;;;;10.79;66.64;102531.09;4945057;28;45845;-53
2021/10/14 04:04:46;;;;;;;;;26.25;24.00;;;;;10.80;66.50;102524.91;4949315;28;45432;-50
2021/10/14 04:07:12;;;;;;;;;28.25;24.75;;;;;10.77;66.50;102529.44;4947200;28;45469;-51
2021/10/14 04:09:37;;;;;;;;;26.50;24.75;;;;;10.78;66.60;102546.97;4945578;28;45366;-50
2021/10/14 04:12:03;;;;;;;;;34.00;27.50;;;;;10.80;66.96;102539.84;4945065;28;45282;-49
2021/10/14 04:14:29;;;;;;;;;24.75;21.75;;;;;10.82;66.66;102545.94;4945313;28;45356;-51
2021/10/14 04:16:54;;;;;;;;;38.00;26.00;;;;;10.83;67.01;102542.41;4945249;28;45170;-50
2021/10/14 04:19:20;;;;;;;;;29.00;25.50;;;;;10.81;66.73;102536.31;4956139;28;45283;-50
2021/10/14 04:21:47;;;;;;;;;40.50;30.00;;;;;10.83;66.99;102539.78;4964005;28;45973;-53
2021/10/14 04:24:12;;;;;;;;;34.50;27.75;;;;;10.83;66.83;102542.41;4964440;28;45358;-50
2021/10/14 04:26:38;;;;;;;;;37.75;31.25;;;;;10.85;66.63;102537.94;4964304;28;45386;-51
2021/10/14 04:29:03;;;;;;;;;32.75;27.50;;;;;10.85;66.66;102537.94;4964663;28;45389;-51
2021/10/14 04:31:29;;;;;;;;;28.75;24.75;;;;;10.84;67.02;102541.50;4964106;28;45304;-53
2021/10/14 04:33:54;;;;;;;;;26.25;22.25;;;;;10.82;67.01;102538.03;4953643;28;45256;-51
2021/10/14 04:36:20;;;;;;;;;33.50;29.75;;;;;10.79;66.74;102539.00;4944485;28;45404;-51
2021/10/14 04:38:46;;;;;;;;;34.25;28.50;;;;;10.76;66.83;102544.38;4944901;28;45406;-52
2021/10/14 04:41:11;;;;;;;;;35.75;25.75;;;;;10.74;66.97;102543.53;4945073;28;45337;-51
2021/10/14 04:43:37;;;;;;;;;41.25;33.00;;;;;10.73;67.26;102547.09;4964139;28;45415;-50
2021/10/14 04:46:02;;;;;;;;;27.50;26.00;;;;;10.74;67.02;102535.63;4947079;28;45320;-51
2021/10/14 04:48:28;;;;;;;;;38.00;26.25;;;;;10.74;67.39;102546.19;4944965;28;45401;-53
2021/10/14 04:50:53;;;;;;;;;49.00;35.00;;;;;10.75;67.38;102544.44;4944495;28;45407;-52
2021/10/14 04:53:19;;;;;;;;;38.75;32.75;;;;;10.75;67.50;102545.28;4944373;28;45377;-51
2021/10/14 04:55:44;;;;;;;;;34.00;28.75;;;;;10.77;67.36;102547.88;4944543;28;45416;-51
2021/10/14 04:58:10;;;;;;;;;37.00;27.50;;;;;10.78;66.80;102544.31;4944685;28;45459;-53
2021/10/14 05:00:36;;;;;;;;;30.75;27.75;;;;;10.80;67.28;102547.78;4943830;28;45662;-52
2021/10/14 05:03:01;;;;;;;;;32.75;28.25;;;;;10.78;66.88;102544.31;4944507;28;45401;-52
2021/10/14 05:05:27;;;;;;;;;36.50;29.25;;;;;10.75;66.95;102544.44;4949928;28;45344;-49
2021/10/14 05:07:52;;;;;;;;;28.00;27.00;;;;;10.72;67.13;102545.38;4944436;28;45464;-54
2021/10/14 05:10:18;;;;;;;;;27.25;24.25;;;;;10.70;66.90;102535.78;4944209;28;46068;-52
2021/10/14 05:12:43;;;;;;;;;37.50;31.75;;;;;10.68;67.51;102540.25;4944358;28;45477;-52
2021/10/14 05:15:10;;;;;;;;;35.25;29.75;;;;;10.64;67.92;102536.84;4944357;28;45452;-51
2021/10/14 05:17:36;;;;;;;;;35.50;29.50;;;;;10.60;68.22;102540.50;4944394;28;45290;-51
2021/10/14 05:20:05;;;;;;;;;31.75;31.50;;;;;10.60;67.93;102543.13;4959800;28;45304;-52
2021/10/14 05:22:30;;;;;;;;;36.50;28.50;;;;;10.61;67.83;102540.44;4963222;28;45225;-49
2021/10/14 05:24:56;;;;;;;;;28.00;26.75;;;;;10.62;67.35;102550.06;4963375;28;45507;-50
2021/10/14 05:27:21;;;;;;;;;31.00;27.50;;;;;10.64;67.41;102550.00;4963494;28;45579;-50
2021/10/14 05:29:47;;;;;;;;;33.75;29.75;;;;;10.63;67.67;102549.16;4962541;28;45436;-52
2021/10/14 05:32:13;;;;;;;;;32.50;26.25;;;;;10.65;67.36;102549.09;4962521;28;45403;-50
2021/10/14 05:34:38;;;;;;;;;38.00;30.75;;;;;10.61;67.30;102552.75;4946488;28;45388;-49
2021/10/14 05:37:04;;;;;;;;;31.00;27.50;;;;;10.58;67.32;102555.47;4962963;28;45616;-50
2021/10/14 05:39:29;;;;;;;;;32.50;28.50;;;;;10.58;67.70;102551.06;4946723;28;46085;-50
2021/10/14 05:41:55;;;;;;;;;38.75;35.75;;;;;10.58;67.35;102551.06;4950237;28;45425;-50
2021/10/14 05:44:20;;;;;;;;;36.50;31.50;;;;;10.55;67.42;102545.03;4960077;28;45342;-48
2021/10/14 05:46:46;;;;;;;;;39.50;33.00;;;;;10.55;67.16;102547.66;4959039;28;45345;-49
2021/10/14 05:49:11;;;;;;;;;37.00;31.50;;;;;10.54;67.36;102548.56;4946921;28;46153;-51
2021/10/14 05:51:37;;;;;;;;;41.00;32.00;;;;;10.55;67.40;102545.03;4943404;28;46204;-50
2021/10/14 05:54:02;;;;;;;;;44.25;32.75;;;;;10.53;67.72;102553.00;4943774;28;45217;-52
2021/10/14 05:56:28;;;;;;;;;39.75;30.50;;;;;10.53;67.53;102546.84;4943730;28;45461;-51
2021/10/14 05:58:53;;;;;;;;;39.75;33.00;;;;;10.56;68.12;102544.97;4943312;28;46075;-49
2021/10/14 06:01:20;;;;;;;;;44.25;35.00;;;;;10.59;68.05;102544.03;4943618;28;45324;-50
2021/10/14 06:03:45;;;;;;;;;43.25;34.25;;;;;10.57;68.18;102536.16;4943357;28;45315;-48
2021/10/14 06:06:11;;;;;;;;;36.75;29.50;;;;;10.54;67.76;102543.31;4956573;28;45366;-52
2021/10/14 06:08:36;;;;;;;;;36.00;30.00;;;;;10.52;67.63;102540.72;4952850;28;45732;-53
2021/10/14 06:11:02;;;;;;;;;37.25;30.50;;;;;10.51;67.66;102540.78;4953387;28;45362;-55
2021/10/14 06:13:28;;;;;;;;;43.50;32.50;;;;;10.48;68.06;102546.13;4952953;28;45350;-57
2021/10/14 06:15:53;;;;;;;;;44.00;32.75;;;;;10.47;68.08;102536.50;4952618;28;45452;-53
2021/10/14 06:18:19;;;;;;;;;40.50;30.25;;;;;10.46;67.60;102537.41;4954472;28;45297;-52
2021/10/14 06:20:45;;;;;;;;;34.75;30.25;;;;;10.46;68.25;102537.41;4951203;28;45328;-52
2021/10/14 06:23:11;;;;;;;;;41.50;35.50;;;;;10.47;68.30;102547.91;4952246;28;45520;-53
2021/10/14 06:25:36;;;;;;;;;42.50;34.75;;;;;10.47;68.02;102547.03;4952656;28;45283;-54
2021/10/14 06:28:02;;;;;;;;;45.75;34.75;;;;;10.45;67.93;102549.72;4954786;28;45603;-54
2021/10/14 06:30:29;;;;;;;;;48.00;36.00;;;;;10.44;68.47;102544.50;4953346;28;45224;-54
2021/10/14 06:32:55;;;;;;;;;40.00;35.75;;;;;10.45;68.53;102540.97;4954086;28;45403;-51
2021/10/14 06:35:20;;;;;;;;;41.25;32.25;;;;;10.43;68.67;102546.28;4951693;28;45200;-54
2021/10/14 06:37:45;;;;;;;;;50.00;37.75;;;;;10.45;68.36;102549.72;4953212;28;45901;-52
2021/10/14 06:40:11;;;;;;;;;31.25;27.75;;;;;10.45;68.32;102546.22;4952535;28;45363;-51
2021/10/14 06:42:37;;;;;;;;;41.50;35.75;;;;;10.47;68.07;102540.00;4954090;28;45250;-53
2021/10/14 06:45:02;;;;;;;;;49.50;36.75;;;;;10.51;68.04;102541.63;4953911;28;46516;-52
2021/10/14 06:47:28;;;;;;;;;38.00;34.50;;;;;10.53;68.14;102547.72;4953658;28;45536;-54
2021/10/14 06:49:54;;;;;;;;;35.00;28.75;;;;;10.56;67.83;102549.38;4953748;28;45485;-54
2021/10/14 06:52:19;;;;;;;;;48.00;36.25;;;;;10.60;68.08;102551.03;4954024;28;45494;-53
2021/10/14 06:54:45;;;;;;;;;42.25;36.00;;;;;10.62;68.01;102544.81;4958955;28;45401;-53
2021/10/14 06:57:11;;;;;;;;;41.25;36.25;;;;;10.66;67.96;102544.69;4947418;28;46443;-49
2021/10/14 06:59:37;;;;;;;;;38.75;31.00;;;;;10.69;68.29;102547.25;4944954;28;45306;-52
2021/10/14 07:02:02;;;;;;;;;39.50;31.25;;;;;10.74;67.98;102538.28;4953325;28;45162;-52
2021/10/14 07:04:28;;;;;;;;;2.00;0.00;;;;;10.77;68.02;102538.19;4956027;28;45283;-51
2021/10/14 07:06:53;;;;;;;;;38.00;32.00;;;;;10.80;68.04;102538.09;4952526;28;45603;-53
2021/10/14 07:09:19;;;;;;;;;41.50;34.25;;;;;10.86;68.22;102547.59;4952674;28;45231;-51
2021/10/14 07:11:52;;;;;;;;;43.50;37.00;;;;;10.92;68.01;102536.00;4953348;28;45360;-53
2021/10/14 07:14:18;;;;;;;;;40.00;33.25;;;;;10.98;67.73;102544.56;4953898;28;45417;-54
2021/10/14 07:16:44;;;;;;;;;38.75;34.25;;;;;11.04;67.89;102535.56;4953071;28;45353;-53
2021/10/14 07:19:09;;;;;;;;;44.25;35.25;;;;;11.08;67.78;102530.16;4954327;28;45248;-54
2021/10/14 07:21:35;;;;;;;;;49.00;38.25;;;;;11.14;67.51;102537.03;4950550;28;45426;-54
2021/10/14 07:24:00;;;;;;;;;48.25;37.75;;;;;11.17;67.45;102532.50;4950797;28;45539;-53
2021/10/14 07:26:27;;;;;;;;;40.00;33.75;;;;;11.26;67.21;102533.09;4951367;28;45580;-53
2021/10/14 07:28:52;;;;;;;;;39.75;36.00;;;;;11.28;67.32;102534.78;4951804;28;45485;-50
2021/10/14 07:31:18;;;;;;;;;49.50;35.50;;;;;11.29;66.90;102538.28;4954735;28;45786;-50
2021/10/14 07:33:44;;;;;;;;;41.00;32.50;;;;;11.33;66.83;102540.75;4950913;28;45606;-53
2021/10/14 07:36:09;;;;;;;;;46.25;34.50;;;;;11.37;67.00;102534.44;4950655;28;45551;-54
2021/10/14 07:38:35;;;;;;;;;44.75;37.75;;;;;11.40;66.96;102536.16;4951137;28;45425;-54
2021/10/14 07:41:01;;;;;;;;;54.50;40.75;;;;;11.43;66.76;102541.31;4953627;28;45445;-51
2021/10/14 07:43:26;;;;;;;;;58.25;45.75;;;;;11.46;66.85;102536.81;4954037;28;45602;-51
2021/10/14 07:45:52;;;;;;;;;48.25;39.75;;;;;11.51;66.75;102538.41;4950137;28;45262;-51
2021/10/14 07:48:18;;;;;;;;;34.25;22.25;;;;;11.59;66.88;102536.38;4950296;28;45172;-54
2021/10/14 07:50:43;;;;;;;;;40.00;36.25;;;;;11.66;66.76;102529.97;4952321;28;45261;-50
2021/10/14 07:53:14;;;;;;;;;52.00;37.75;;;;;11.71;66.29;102531.53;4951529;28;45573;-49
2021/10/14 07:55:39;;;;;;;;;54.75;41.25;;;;;11.80;66.26;102537.41;4953972;28;45341;-52
2021/10/14 07:58:05;;;;;;;;;54.25;39.25;;;;;11.87;66.20;102533.66;4952798;28;45342;-52
2021/10/14 08:00:30;;;;;;;;;54.75;38.50;;;;;11.94;65.99;102530.75;4952688;28;45574;-52
2021/10/14 08:02:56;;;;;;;;;46.25;38.00;;;;;12.00;65.99;102538.41;4952834;28;45330;-52
2021/10/14 08:05:22;;;;;;;;;35.50;31.25;;;;;12.07;65.82;102535.56;4954884;28;46108;-54
2021/10/14 08:07:47;;;;;;;;;46.75;38.50;;;;;12.14;65.79;102531.78;4951941;28;45179;-55
2021/10/14 08:10:13;;;;;;;;;44.25;36.75;;;;;12.22;65.70;102530.56;4953744;28;45303;-51
2021/10/14 08:12:38;;;;;;;;;46.25;38.00;;;;;12.30;65.22;102527.63;4953210;28;45434;-49
2021/10/14 08:15:04;;;;;;;;;49.00;40.00;;;;;12.37;65.24;102525.63;4952199;28;45313;-50
2021/10/14 08:17:31;;;;;;;;;54.50;43.25;;;;;12.43;65.24;102528.91;4952659;28;45237;-52
2021/10/14 08:19:57;;;;;;;;;59.50;40.25;;;;;12.52;65.37;102536.47;4950593;28;45529;-53
2021/10/14 08:22:23;;;;;;;;;53.50;41.25;;;;;12.57;65.05;102531.88;4950221;28;45486;-51
2021/10/14 08:24:49;;;;;;;;;58.00;42.00;;;;;12.64;64.86;102536.91;4951748;28;45892;-55
2021/10/14 08:27:14;;;;;;;;;59.00;44.25;;;;;12.69;64.48;102537.59;4951160;28;45444;-55
2021/10/14 08:29:40;;;;;;;;;56.75;41.00;;;;;12.74;64.66;102533.00;4954255;28;45455;-54
2021/10/14 08:32:06;;;;;;;;;58.25;43.50;;;;;12.78;64.62;102524.88;4951942;28;45437;-54
2021/10/14 08:34:31;;;;;;;;;59.25;45.00;;;;;12.87;64.25;102521.00;4951738;28;45472;-52
2021/10/14 08:36:57;;;;;;;;;54.50;41.75;;;;;12.93;64.22;102525.19;4953476;28;45299;-53
2021/10/14 08:39:24;;;;;;;;;53.75;39.50;;;;;12.99;63.95;102522.28;4971486;28;45440;-53
2021/10/14 08:41:50;;;;;;;;;51.00;39.75;;;;;13.03;63.28;102522.13;4955794;28;45503;-49
2021/10/14 08:44:31;;;;;;;;;54.75;42.75;;;;;13.09;63.57;102521.84;4952959;28;45240;-52
2021/10/14 08:46:57;;;;;;;;;56.00;45.50;;;;;13.17;63.49;102526.81;4956959;28;45347;-53
2021/10/14 08:49:23;;;;;;;;;52.75;41.25;;;;;13.26;63.48;102512.38;4948769;28;45174;-52
2021/10/14 08:51:53;;;;;;;;;49.50;37.75;;;;;13.32;63.04;102517.41;4953654;28;45488;-54
2021/10/14 08:54:19;;;;;;;;;56.00;44.25;;;;;13.39;62.89;102513.56;4954056;28;45574;-53
2021/10/14 08:56:48;;;;;;;;;56.25;41.50;;;;;13.47;62.64;102522.06;4952535;28;45386;-52
2021/10/14 08:59:18;;;;;;;;;54.00;40.00;;;;;13.50;62.24;102513.09;4953073;28;45466;-53
2021/10/14 09:02:16;;;;;;;;;54.00;42.50;;;;;13.55;62.43;102513.78;4954746;28;45593;-53
2021/10/14 09:04:46;;;;;;;;;55.50;43.25;;;;;13.65;62.49;102515.09;4955747;28;45421;-54
2021/10/14 09:07:21;;;;;;;;;53.75;42.00;;;;;13.73;62.00;102512.09;4955704;28;45587;-52
2021/10/14 09:09:49;;;;;;;;;57.00;41.75;;;;;13.82;61.96;102509.91;4952371;28;45331;-51
2021/10/14 09:12:19;;;;;;;;;48.75;41.00;;;;;13.90;61.88;102507.81;4952918;28;45522;-53
2021/10/14 09:15:15;;;;;;;;;49.25;38.00;;;;;14.02;61.31;102503.72;4953628;28;46196;-52
2021/10/14 09:17:50;;;;;;;;;60.00;43.75;;;;;14.10;60.93;102504.22;4954006;28;45199;-56
2021/10/14 09:20:25;;;;;;;;;46.75;39.25;;;;;14.21;60.84;102501.06;4953949;28;45340;-56
2021/10/14 09:23:03;;;;;;;;;47.50;39.50;;;;;14.28;60.36;102502.50;4952693;28;45277;-49
2021/10/14 09:25:35;;;;;;;;;50.75;39.50;;;;;14.31;60.28;102505.03;4952655;28;45443;-52
2021/10/14 09:28:07;;;;;;;;;51.00;38.75;;;;;14.40;60.07;102499.31;4954945;28;45404;-56
2021/10/14 09:31:07;;;;;;;;;44.75;35.75;;;;;14.49;60.06;102495.38;4968171;28;45301;-54
2021/10/14 09:33:43;;;;;;;;;45.50;38.00;;;;;14.58;59.97;102494.09;4961831;28;45333;-55
2021/10/14 09:36:17;;;;;;;;;42.75;34.50;;;;;14.64;59.65;102494.66;4952083;28;45516;-53
2021/10/14 09:38:46;;;;;;;;;45.25;37.50;;;;;14.70;58.91;102493.50;4967776;28;45504;-50
2021/10/14 09:41:22;;;;;;;;;40.50;33.25;;;;;14.73;58.88;102483.59;4954994;28;45460;-50
2021/10/14 09:43:55;;;;;;;;;43.25;36.25;;;;;14.81;58.87;102491.19;4952362;28;45244;-54
2021/10/14 09:46:37;;;;;;;;;44.25;36.75;;;;;14.87;58.31;102482.06;4969298;28;46305;-52
2021/10/14 09:49:06;;;;;;;;;40.75;35.75;;;;;14.91;58.00;102481.81;4953759;28;45349;-54
2021/10/14 09:51:32;;;;;;;;;40.50;33.50;;;;;14.93;57.53;102481.72;4954311;28;45725;-51
2021/10/14 09:53:59;;;;;;;;;35.25;32.75;;;;;14.95;57.37;102477.22;4954630;28;45449;-50
2021/10/14 09:56:28;;;;;;;;;43.75;33.25;;;;;15.01;57.84;102476.94;4951728;28;45597;-49
2021/10/14 09:58:54;;;;;;;;;38.00;33.00;;;;;15.07;57.43;102469.50;4952053;28;45500;-49
2021/10/14 10:01:20;;;;;;;;;40.75;33.00;;;;;15.16;57.40;102470.81;4950731;28;45471;-50
2021/10/14 10:03:47;;;;;;;;;37.00;32.00;;;;;15.22;56.88;102467.00;4955011;28;45367;-52
2021/10/14 10:06:14;;;;;;;;;41.00;32.50;;;;;15.29;56.80;102460.44;4952131;28;46407;-54
2021/10/14 10:08:43;;;;;;;;;32.25;24.50;;;;;15.35;56.33;102453.03;4954321;28;45467;-50
2021/10/14 10:11:13;;;;;;;;;15.75;13.75;;;;;15.42;55.36;102458.88;4953760;28;45668;-50
2021/10/14 10:13:44;;;;;;;;;14.50;11.25;;;;;15.49;55.22;102459.44;4954908;28;45406;-53
2021/10/14 10:16:19;;;;;;;;;11.50;7.00;;;;;15.53;54.33;102460.97;4952527;28;45478;-54
2021/10/14 10:18:59;;;;;;;;;8.25;8.25;;;;;15.58;54.41;102453.63;4952241;28;45429;-53
2021/10/14 10:21:45;;;;;;;;;46.50;32.75;;;;;15.65;54.41;102454.19;4952853;28;45464;-53
2021/10/14 10:24:19;;;;;;;;;6.75;4.00;;;;;15.69;53.56;102447.75;4953024;28;45389;-54
2021/10/14 10:26:45;;;;;;;;;3.25;3.00;;;;;15.74;52.77;102445.72;4955340;28;45244;-55
2021/10/14 10:29:16;;;;;;;;;6.00;5.25;;;;;15.79;53.02;102443.66;4951061;28;45346;-54
2021/10/14 10:31:56;;;;;;;;;5.25;5.25;;;;;15.84;52.66;102436.31;4951809;28;46409;-55
2021/10/14 10:37:15;;;;;;;;;3.00;2.50;;;;;15.96;52.45;102430.34;4951341;28;45370;-54
2021/10/14 10:39:49;;;;;;;;;3.75;3.50;;;;;16.01;51.79;102428.25;4956234;28;45551;-54
2021/10/14 10:42:24;;;;;;;;;4.75;4.25;;;;;16.06;51.34;102430.69;4951968;28;45292;-54
2021/10/14 10:44:50;;;;;;;;;2.75;0.00;;;;;16.06;51.25;102423.56;4955733;28;45497;-54
2021/10/14 10:47:41;;;;;;;;;16.25;12.50;;;;;16.07;51.04;102419.97;4951120;28;46079;-50
2021/10/14 10:50:10;;;;;;;;;9.50;4.50;;;;;16.12;50.98;102419.72;4952712;28;45249;-54
2021/10/14 10:52:43;;;;;;;;;6.25;5.00;;;;;16.17;50.67;102422.97;4948242;28;45314;-53
2021/10/14 10:55:39;;;;;;;;;14.75;12.50;;;;;16.19;51.11;102418.41;4951051;28;45430;-52
2021/10/14 10:58:07;;;;;;;;;15.75;13.75;;;;;16.22;51.46;102423.56;4948829;28;46170;-51
2021/10/14 11:00:34;;;;;;;;;13.50;13.00;;;;;16.23;51.32;102416.44;4952229;28;45495;-51
2021/10/14 11:03:23;;;;;;;;;18.50;17.00;;;;;16.27;51.09;102408.19;4952061;28;45453;-54
2021/10/14 11:06:00;;;;;;;;;16.00;15.00;;;;;16.33;51.30;102412.31;4952580;28;45403;-55
2021/10/14 11:08:26;;;;;;;;;15.00;13.25;;;;;16.37;51.31;102405.88;4952534;28;45321;-55
2021/10/14 11:10:55;;;;;;;;;11.00;9.50;;;;;16.43;50.95;102398.41;4953125;28;45405;-55
2021/10/14 11:13:22;;;;;;;;;18.50;13.75;;;;;16.47;50.86;102405.25;4953836;28;45396;-52